Time;durP1;ratioP1;P1;durP2;ratioP2;P2;SDS_P1;SDS_P2;PMS_P1;PMS_P2;Temp;Humidity;BMP_temperature;BMP_pressure;BME280_temperature;BME280_humidity;BME280_pressure;Samples;Min_cycle;Max_cycle;Signal;HPM_P1;HPM_P2
2021/04/12 00:01:09;;;;;;;6.38;3.00;;;6.10;59.00;;;;;;5029584;28;20430;-63
2021/04/12 00:03:49;;;;;;;9.23;3.72;;;6.00;59.00;;;;;;5026064;28;20391;-63
2021/04/12 00:06:35;;;;;;;6.90;3.25;;;6.00;59.20;;;;;;5030410;28;20052;-63
2021/04/12 00:09:09;;;;;;;10.55;2.97;;;6.00;59.20;;;;;;5027207;28;20033;-63
2021/04/12 00:11:42;;;;;;;9.88;3.85;;;6.00;59.30;;;;;;5025361;28;20439;-64
2021/04/12 00:14:49;;;;;;;10.55;3.13;;;6.00;59.40;;;;;;5027199;28;20187;-63
2021/04/12 00:17:20;;;;;;;9.95;3.28;;;6.00;59.30;;;;;;4951204;28;20138;-63
2021/04/12 00:19:52;;;;;;;14.88;3.05;;;5.90;59.40;;;;;;5017359;28;20048;-63
2021/04/12 00:22:33;;;;;;;7.82;3.53;;;6.00;59.50;;;;;;5033243;28;20028;-63
2021/04/12 00:25:08;;;;;;;14.27;3.42;;;6.00;59.60;;;;;;5028412;28;20106;-64
2021/04/12 00:27:40;;;;;;;6.95;3.17;;;5.90;59.60;;;;;;5027215;28;20037;-64
2021/04/12 00:30:09;;;;;;;13.07;3.95;;;5.90;59.70;;;;;;5024419;28;20407;-63
2021/04/12 00:32:40;;;;;;;11.65;3.75;;;5.90;59.70;;;;;;5027692;28;20033;-64
2021/04/12 00:35:19;;;;;;;11.38;3.20;;;5.90;59.70;;;;;;5027266;28;20090;-64
2021/04/12 00:37:50;;;;;;;8.18;3.42;;;5.90;59.70;;;;;;5027329;28;20037;-64
2021/04/12 00:40:29;;;;;;;7.45;3.42;;;5.90;59.80;;;;;;5031343;28;20037;-64
2021/04/12 00:43:16;;;;;;;5.35;3.35;;;5.90;59.90;;;;;;5040297;28;20072;-64
2021/04/12 00:46:05;;;;;;;11.10;3.50;;;5.90;60.50;;;;;;5028755;28;20048;-64
2021/04/12 00:49:00;;;;;;;10.85;3.40;;;5.90;59.90;;;;;;5028565;28;20065;-63
2021/04/12 00:51:42;;;;;;;8.98;3.33;;;5.80;59.90;;;;;;5032584;28;20029;-63
2021/04/12 00:54:54;;;;;;;7.00;3.20;;;5.80;60.00;;;;;;5028132;28;20946;-63
2021/04/12 00:57:48;;;;;;;12.75;3.78;;;5.80;60.00;;;;;;5013216;22;20044;-63
2021/04/12 01:00:26;;;;;;;7.85;3.83;;;5.80;60.00;;;;;;5038316;28;20466;-64
2021/04/12 01:03:09;;;;;;;8.50;3.97;;;5.80;60.30;;;;;;5026130;28;20044;-63
2021/04/12 01:05:55;;;;;;;7.72;3.80;;;5.80;60.40;;;;;;5038984;28;20843;-63
2021/04/12 01:08:36;;;;;;;13.35;4.00;;;5.80;60.30;;;;;;5003598;28;20087;-63
2021/04/12 01:11:43;;;;;;;13.20;3.97;;;5.80;60.30;;;;;;4997785;28;20041;-63
2021/04/12 01:14:24;;;;;;;9.20;4.07;;;5.80;60.30;;;;;;5009063;28;23945;-63
2021/04/12 01:17:18;;;;;;;13.02;4.57;;;5.80;60.30;;;;;;5006260;28;20382;-63
2021/04/12 01:20:28;;;;;;;13.60;4.47;;;5.80;60.40;;;;;;5009048;28;20045;-63
2021/04/12 01:23:37;;;;;;;18.95;5.22;;;5.70;60.40;;;;;;5000041;28;20573;-63
2021/04/12 01:26:12;;;;;;;13.25;4.75;;;5.70;60.40;;;;;;5008042;28;20037;-63
2021/04/12 01:29:04;;;;;;;10.38;5.10;;;5.70;60.60;;;;;;5008150;28;20265;-63
2021/04/12 01:31:58;;;;;;;16.27;5.53;;;5.70;60.60;;;;;;5005486;28;20080;-63
2021/04/12 01:35:00;;;;;;;12.77;5.72;;;5.70;60.60;;;;;;5009144;28;20038;-62
2021/04/12 01:37:40;;;;;;;15.90;5.32;;;5.70;60.60;;;;;;5010016;28;20044;-63
2021/04/12 01:40:24;;;;;;;13.68;5.05;;;5.70;60.60;;;;;;5009353;28;20061;-63
2021/04/12 01:43:02;;;;;;;15.55;5.38;;;5.70;60.60;;;;;;5010427;28;20162;-63
2021/04/12 01:45:48;;;;;;;12.05;4.85;;;5.70;60.70;;;;;;5010505;28;20372;-63
2021/04/12 01:48:39;;;;;;;17.30;4.50;;;5.80;60.70;;;;;;5009679;28;20124;-63
2021/04/12 01:51:14;;;;;;;16.38;5.13;;;5.80;60.60;;;;;;5007292;28;20061;-63
2021/04/12 01:53:51;;;;;;;9.57;4.28;;;5.80;60.60;;;;;;5002837;28;20132;-62
2021/04/12 01:56:38;;;;;;;11.98;4.18;;;5.80;60.60;;;;;;5004086;28;20083;-63
2021/04/12 01:59:41;;;;;;;12.90;4.45;;;5.70;60.40;;;;;;5011553;28;20052;-62
2021/04/12 02:02:19;;;;;;;9.30;3.88;;;5.70;60.50;;;;;;5011048;28;20068;-63
2021/04/12 02:05:09;;;;;;;7.80;4.20;;;5.70;60.60;;;;;;5007695;28;20048;-62
2021/04/12 02:08:09;;;;;;;14.70;4.50;;;5.70;60.60;;;;;;5007207;28;20049;-63
2021/04/12 02:10:56;;;;;;;8.10;4.50;;;5.70;60.60;;;;;;5004196;28;20069;-63
2021/04/12 02:13:39;;;;;;;10.13;4.22;;;5.70;60.70;;;;;;5008447;28;20060;-63
2021/04/12 02:16:21;;;;;;;9.07;4.35;;;5.70;60.70;;;;;;5004456;28;20033;-63
2021/04/12 02:19:23;;;;;;;7.15;3.97;;;5.70;60.70;;;;;;5005803;28;20095;-64
2021/04/12 02:22:00;;;;;;;11.35;4.47;;;5.60;60.50;;;;;;5004685;28;20067;-62
2021/04/12 02:24:32;;;;;;;14.55;4.18;;;5.60;60.50;;;;;;5006424;28;20061;-62
2021/04/12 02:27:18;;;;;;;9.60;4.35;;;5.60;60.50;;;;;;5003659;28;20044;-64
2021/04/12 02:30:02;;;;;;;12.50;4.40;;;5.60;60.40;;;;;;5007727;28;20029;-62
2021/04/12 02:32:40;;;;;;;12.52;3.65;;;5.60;60.50;;;;;;5003634;28;20054;-63
2021/04/12 02:35:24;;;;;;;10.13;4.93;;;5.50;60.40;;;;;;5004481;28;20954;-62
2021/04/12 02:38:20;;;;;;;13.45;4.60;;;5.50;60.50;;;;;;5002452;28;20037;-62
2021/04/12 02:41:05;;;;;;;7.93;3.88;;;5.50;60.60;;;;;;5004522;28;20033;-63
2021/04/12 02:43:50;;;;;;;12.93;4.68;;;5.50;60.60;;;;;;5011085;28;20049;-63
2021/04/12 02:46:43;;;;;;;10.93;4.38;;;5.50;60.60;;;;;;4997998;28;20030;-63
2021/04/12 02:49:29;;;;;;;10.18;3.85;;;5.40;60.50;;;;;;5004950;28;20076;-62
2021/04/12 02:52:21;;;;;;;12.73;3.90;;;5.40;60.60;;;;;;5000631;28;20034;-63
2021/04/12 02:55:12;;;;;;;15.00;4.28;;;5.40;60.60;;;;;;5001213;28;20285;-63
2021/04/12 02:57:47;;;;;;;12.13;4.55;;;5.40;60.60;;;;;;5000844;28;20037;-63
2021/04/12 03:00:44;;;;;;;11.30;4.03;;;5.40;60.60;;;;;;5003968;28;20076;-63
2021/04/12 03:03:45;;;;;;;9.43;4.13;;;5.40;60.50;;;;;;5007418;28;20091;-63
2021/04/12 03:06:45;;;;;;;13.35;4.90;;;5.40;60.50;;;;;;4954141;28;20045;-62
2021/04/12 03:09:33;;;;;;;11.15;4.82;;;5.30;60.30;;;;;;4995052;28;20030;-62
2021/04/12 03:12:16;;;;;;;6.90;4.20;;;5.30;60.20;;;;;;5002691;28;20041;-63
2021/04/12 03:14:52;;;;;;;9.35;4.65;;;5.20;60.20;;;;;;5002983;28;20073;-63
2021/04/12 03:17:39;;;;;;;10.65;4.30;;;5.20;60.40;;;;;;4996918;28;20087;-63
2021/04/12 03:20:17;;;;;;;8.98;4.05;;;5.20;60.70;;;;;;5003714;28;20052;-63
2021/04/12 03:23:17;;;;;;;14.63;5.38;;;5.20;60.40;;;;;;5005982;28;20046;-63
2021/04/12 03:26:14;;;;;;;12.73;4.35;;;5.20;60.50;;;;;;4980261;28;20395;-63
2021/04/12 03:29:02;;;;;;;12.23;4.88;;;5.10;60.50;;;;;;5001061;28;20056;-63
2021/04/12 03:32:07;;;;;;;17.25;5.13;;;5.10;60.50;;;;;;4996292;28;20124;-66
2021/04/12 03:34:47;;;;;;;10.43;4.88;;;5.10;60.60;;;;;;4999865;28;20040;-63
2021/04/12 03:37:35;;;;;;;11.77;5.15;;;5.10;60.60;;;;;;5001706;28;20041;-64
2021/04/12 03:40:24;;;;;;;9.57;5.35;;;5.10;60.60;;;;;;5001702;28;20047;-64
2021/04/12 03:43:09;;;;;;;17.35;6.20;;;5.10;60.60;;;;;;4997850;28;20119;-63
2021/04/12 03:46:03;;;;;;;14.45;5.35;;;5.10;60.60;;;;;;5000899;28;20046;-62
2021/04/12 03:48:38;;;;;;;12.07;5.47;;;5.10;60.60;;;;;;5010776;28;20052;-64
2021/04/12 03:51:46;;;;;;;14.50;5.97;;;5.10;60.60;;;;;;5000323;28;20478;-63
2021/04/12 03:54:43;;;;;;;13.13;5.15;;;5.00;60.60;;;;;;5001006;28;20470;-64
2021/04/12 03:57:41;;;;;;;14.27;7.32;;;5.00;60.60;;;;;;4996882;28;20047;-64
2021/04/12 04:00:40;;;;;;;11.63;6.65;;;5.00;60.50;;;;;;4995127;28;20056;-63
2021/04/12 04:03:27;;;;;;;18.77;5.90;;;5.00;60.60;;;;;;4998098;28;20510;-62
2021/04/12 04:06:14;;;;;;;16.13;7.35;;;5.00;60.70;;;;;;4999908;28;20045;-63
2021/04/12 04:08:58;;;;;;;20.45;6.82;;;4.90;60.70;;;;;;4994966;28;20064;-62
2021/04/12 04:11:35;;;;;;;18.02;7.43;;;5.00;60.80;;;;;;5003190;28;20440;-62
2021/04/12 04:14:38;;;;;;;18.15;7.20;;;5.00;61.00;;;;;;5005991;28;20556;-62
2021/04/12 04:17:51;;;;;;;16.25;7.15;;;5.00;61.00;;;;;;4996362;28;20038;-62
2021/04/12 04:20:40;;;;;;;11.85;6.18;;;5.00;61.00;;;;;;4988258;28;20686;-62
2021/04/12 04:23:49;;;;;;;22.35;7.40;;;5.00;60.90;;;;;;5005818;28;20541;-62
2021/04/12 04:26:53;;;;;;;15.23;6.45;;;5.00;60.90;;;;;;4992846;28;20042;-62
2021/04/12 04:29:30;;;;;;;13.70;6.40;;;4.90;60.80;;;;;;4997573;28;20041;-62
2021/04/12 04:32:25;;;;;;;11.93;6.63;;;5.00;61.00;;;;;;5004504;28;20091;-62
2021/04/12 04:35:10;;;;;;;13.20;6.68;;;4.90;61.00;;;;;;4999405;28;20056;-64
2021/04/12 04:38:23;;;;;;;16.40;6.95;;;4.90;61.10;;;;;;4994590;28;20083;-63
2021/04/12 04:41:06;;;;;;;16.65;6.75;;;4.90;61.20;;;;;;4991856;28;20064;-63
2021/04/12 04:43:39;;;;;;;22.17;7.55;;;5.00;61.30;;;;;;4998837;28;20143;-62
2021/04/12 04:46:13;;;;;;;16.17;7.95;;;5.00;61.30;;;;;;5006943;28;20479;-64
2021/04/12 04:48:42;;;;;;;15.90;6.75;;;4.90;61.40;;;;;;5004196;28;20843;-63
2021/04/12 04:51:35;;;;;;;14.77;6.60;;;5.00;61.40;;;;;;5023116;28;20030;-63
2021/04/12 04:54:27;;;;;;;20.83;6.93;;;5.00;61.40;;;;;;4996817;28;20045;-63
2021/04/12 04:57:09;;;;;;;14.75;6.88;;;5.00;61.40;;;;;;5013732;28;20422;-63
2021/04/12 04:59:45;;;;;;;14.32;7.32;;;5.00;61.30;;;;;;5001922;28;21036;-63
2021/04/12 05:02:32;;;;;;;10.45;6.60;;;5.00;61.40;;;;;;4996252;28;20056;-63
2021/04/12 05:06:02;;;;;;;15.90;7.05;;;5.10;61.60;;;;;;4997435;28;20038;-63
2021/04/12 05:08:45;;;;;;;14.25;6.85;;;5.10;61.50;;;;;;4925097;28;20039;-63
2021/04/12 05:11:17;;;;;;;23.10;7.03;;;5.10;61.60;;;;;;5003725;28;20034;-63
2021/04/12 05:14:04;;;;;;;25.08;7.88;;;5.10;61.60;;;;;;5010021;28;20494;-63
2021/04/12 05:17:00;;;;;;;14.00;6.70;;;5.10;61.70;;;;;;5008218;28;20128;-64
2021/04/12 05:19:47;;;;;;;17.27;6.28;;;5.20;61.60;;;;;;5008653;28;20041;-63
2021/04/12 05:22:27;;;;;;;21.90;7.20;;;5.20;61.50;;;;;;5002192;28;20550;-63
2021/04/12 05:25:19;;;;;;;17.58;7.85;;;5.20;61.50;;;;;;4999319;28;20041;-64
2021/04/12 05:28:06;;;;;;;20.67;6.95;;;5.20;61.60;;;;;;5006102;28;20188;-63
2021/04/12 05:30:51;;;;;;;19.92;6.85;;;5.20;61.60;;;;;;5008440;28;20095;-64
2021/04/12 05:33:42;;;;;;;20.05;7.30;;;5.30;61.70;;;;;;5010583;28;22212;-64
2021/04/12 05:36:35;;;;;;;19.80;7.72;;;5.30;61.90;;;;;;5009849;28;20038;-66
2021/04/12 05:39:41;;;;;;;18.77;8.50;;;5.40;62.10;;;;;;5005445;28;20072;-63
2021/04/12 05:42:22;;;;;;;20.38;7.40;;;5.50;62.40;;;;;;5001230;28;20058;-63
2021/04/12 05:44:59;;;;;;;21.05;7.50;;;5.60;62.20;;;;;;5004544;28;20045;-64
2021/04/12 05:47:43;;;;;;;24.02;8.10;;;5.60;62.00;;;;;;5003621;28;20404;-64
2021/04/12 05:50:13;;;;;;;21.80;7.40;;;5.70;61.90;;;;;;5001290;28;20044;-63
2021/04/12 05:53:03;;;;;;;22.05;7.63;;;5.70;62.00;;;;;;5006527;28;20759;-63
2021/04/12 05:55:49;;;;;;;22.38;7.45;;;5.80;62.20;;;;;;5005202;28;20041;-64
2021/04/12 05:58:38;;;;;;;21.85;7.45;;;5.90;62.30;;;;;;5004080;28;20056;-64
2021/04/12 06:01:28;;;;;;;18.88;7.72;;;6.00;62.50;;;;;;5002851;28;20037;-64
2021/04/12 06:04:21;;;;;;;23.80;8.07;;;6.10;62.40;;;;;;4996226;28;20041;-64
2021/04/12 06:06:58;;;;;;;17.77;7.60;;;6.20;62.30;;;;;;5007566;28;20084;-64
2021/04/12 06:09:39;;;;;;;14.73;6.82;;;6.30;62.30;;;;;;5005763;28;21159;-63
2021/04/12 06:12:25;;;;;;;25.02;7.68;;;6.40;62.30;;;;;;5000418;28;20049;-64
2021/04/12 06:15:10;;;;;;;19.52;7.53;;;6.50;62.30;;;;;;5003573;28;20489;-66
2021/04/12 06:18:18;;;;;;;23.42;8.05;;;6.60;62.30;;;;;;5002202;28;20053;-63
2021/04/12 06:21:02;;;;;;;23.55;7.97;;;6.80;62.90;;;;;;4999722;28;20572;-61
2021/04/12 06:23:54;;;;;;;17.88;7.18;;;7.10;62.90;;;;;;4999719;28;20044;-63
2021/04/12 06:26:55;;;;;;;18.63;6.30;;;7.30;62.30;;;;;;5002814;28;20042;-62
2021/04/12 06:29:49;;;;;;;17.02;6.93;;;7.30;61.60;;;;;;5001477;28;20567;-65
2021/04/12 06:33:03;;;;;;;25.45;7.05;;;7.30;61.60;;;;;;5009855;28;20045;-62
2021/04/12 06:35:44;;;;;;;17.00;6.88;;;7.30;61.80;;;;;;5012064;28;20034;-65
2021/04/12 06:38:31;;;;;;;20.00;6.25;;;7.30;61.80;;;;;;5004431;28;20041;-64
2021/04/12 06:41:50;;;;;;;15.15;5.97;;;7.30;61.80;;;;;;5013352;28;20125;-65
2021/04/12 06:44:39;;;;;;;20.55;7.55;;;7.40;62.00;;;;;;5001566;28;20068;-63
2021/04/12 06:47:27;;;;;;;22.73;7.28;;;7.70;63.10;;;;;;5013735;28;20037;-62
2021/04/12 06:50:20;;;;;;;18.15;6.70;;;7.80;62.70;;;;;;5008079;28;20029;-62
2021/04/12 06:53:15;;;;;;;11.55;6.20;;;7.90;62.40;;;;;;5010323;28;20041;-63
2021/04/12 06:55:56;;;;;;;14.35;6.57;;;8.10;62.50;;;;;;5012521;28;20033;-63
2021/04/12 06:58:41;;;;;;;16.05;6.22;;;8.20;62.80;;;;;;5005275;28;20065;-63
2021/04/12 07:01:43;;;;;;;18.65;6.18;;;8.60;63.90;;;;;;5005209;28;20034;-63
2021/04/12 07:04:32;;;;;;;24.23;5.32;;;9.20;63.10;;;;;;5007953;28;20620;-62
2021/04/12 07:07:17;;;;;;;9.75;4.22;;;9.70;63.50;;;;;;5007794;28;20060;-63
2021/04/12 07:10:04;;;;;;;6.65;3.35;;;10.60;63.50;;;;;;5006164;28;20139;-63
2021/04/12 07:12:50;;;;;;;10.95;3.22;;;;;;;;;;5008533;28;20042;-63
2021/04/12 07:15:35;;;;;;;8.10;2.63;;;;;;;;;;5009584;28;20576;-63
2021/04/12 07:18:20;;;;;;;11.52;2.75;;;;;;;;;;5010484;28;20049;-62
2021/04/12 07:21:23;;;;;;;5.82;2.47;;;11.30;61.90;;;;;;5026123;28;20076;-63
2021/04/12 07:24:03;;;;;;;7.72;2.90;;;11.70;55.60;;;;;;5027211;28;20445;-63
2021/04/12 07:27:00;;;;;;;11.48;2.88;;;11.20;55.30;;;;;;5006001;28;20103;-64
2021/04/12 07:29:56;;;;;;;7.80;2.63;;;10.90;55.50;;;;;;4998760;28;20502;-62
2021/04/12 07:32:53;;;;;;;7.88;2.53;;;10.70;55.90;;;;;;4985159;28;20558;-62
2021/04/12 07:35:56;;;;;;;5.28;2.38;;;10.70;56.40;;;;;;5000349;28;20060;-62
2021/04/12 07:38:41;;;;;;;3.33;1.70;;;;;;;;;;4997509;28;20132;-63
2021/04/12 07:41:18;;;;;;;11.82;2.80;;;;;;;;;;5001092;28;20060;-63
2021/04/12 07:43:53;;;;;;;5.43;1.83;;;11.70;58.30;;;;;;5019927;28;20044;-63
2021/04/12 07:46:39;;;;;;;6.18;1.60;;;16.50;52.10;;;;;;5004469;28;20655;-63
2021/04/12 07:49:22;;;;;;;4.78;1.50;;;18.00;49.10;;;;;;4995411;28;20052;-63
2021/04/12 07:52:00;;;;;;;6.90;1.70;;;19.80;45.40;;;;;;4997259;28;20059;-63
2021/04/12 07:54:29;;;;;;;6.38;1.75;;;;;;;;;;5004265;28;20659;-64
2021/04/12 07:57:13;;;;;;;3.13;1.20;;;;;;;;;;4993053;28;20049;-63
2021/04/12 08:00:01;;;;;;;3.90;1.33;;;;;;;;;;5003057;28;20037;-63
2021/04/12 08:02:54;;;;;;;2.28;1.15;;;21.10;41.70;;;;;;4995945;28;20842;-63
2021/04/12 08:05:48;;;;;;;6.30;1.73;;;;;;;;;;4983261;28;20510;-63
2021/04/12 08:08:32;;;;;;;4.32;1.30;;;;;;;;;;4996643;28;20037;-63
2021/04/12 08:11:21;;;;;;;2.30;1.00;;;;;;;;;;4997920;28;20026;-63
2021/04/12 08:14:11;;;;;;;3.58;1.20;;;24.80;32.90;;;;;;4997712;28;20033;-63
2021/04/12 08:16:40;;;;;;;2.80;1.10;;;26.50;27.10;;;;;;4999254;28;20060;-63
2021/04/12 08:19:15;;;;;;;3.88;1.25;;;26.50;26.90;;;;;;5003848;28;20045;-63
2021/04/12 08:22:10;;;;;;;6.15;1.10;;;26.50;26.40;;;;;;4994903;28;20052;-63
2021/04/12 08:24:58;;;;;;;4.80;1.00;;;26.30;26.40;;;;;;4992451;28;20737;-63
2021/04/12 08:27:45;;;;;;;2.10;0.80;;;26.10;26.00;;;;;;4999579;28;20081;-63
2021/04/12 08:30:39;;;;;;;2.05;1.00;;;25.00;26.30;;;;;;4999635;28;20041;-63
2021/04/12 08:33:41;;;;;;;3.13;1.02;;;24.00;27.20;;;;;;5002165;28;20037;-63
2021/04/12 08:36:28;;;;;;;5.03;1.20;;;23.10;28.00;;;;;;4996393;28;20525;-63
2021/04/12 08:39:17;;;;;;;3.03;1.00;;;23.00;29.00;;;;;;4996525;28;20056;-63
2021/04/12 08:42:09;;;;;;;4.40;1.10;;;23.70;28.30;;;;;;5001822;28;21190;-63
2021/04/12 08:44:56;;;;;;;3.35;1.20;;;23.30;27.50;;;;;;4993990;28;20490;-63
2021/04/12 08:47:52;;;;;;;4.05;1.08;;;22.80;27.90;;;;;;4987860;28;20143;-63
2021/04/12 08:50:31;;;;;;;7.47;1.40;;;21.80;28.30;;;;;;5009717;28;20510;-63
2021/04/12 08:53:22;;;;;;;3.03;0.93;;;20.50;29.50;;;;;;4996695;28;20049;-63
2021/04/12 08:55:48;;;;;;;4.43;1.00;;;20.30;32.00;;;;;;4997736;28;20529;-63
2021/04/12 08:58:50;;;;;;;3.38;0.93;;;20.80;30.70;;;;;;4996862;28;20045;-63
2021/04/12 09:01:53;;;;;;;4.82;0.90;;;21.40;30.80;;;;;;5007202;28;20495;-63
2021/04/12 09:04:51;;;;;;;3.95;1.02;;;22.00;29.30;;;;;;5003931;28;20414;-63
2021/04/12 09:07:23;;;;;;;2.35;0.95;;;22.30;28.70;;;;;;4999911;28;20045;-63
2021/04/12 09:10:16;;;;;;;5.05;1.17;;;23.50;27.80;;;;;;5007962;28;20370;-63
2021/04/12 09:13:04;;;;;;;4.57;1.10;;;24.10;26.60;;;;;;5006380;28;20041;-63
2021/04/12 09:16:19;;;;;;;4.38;0.90;;;24.50;25.90;;;;;;5005928;28;20056;-62
2021/04/12 09:19:10;;;;;;;4.88;1.10;;;24.30;25.60;;;;;;4976678;28;20045;-62
2021/04/12 09:21:46;;;;;;;5.50;1.00;;;23.90;26.00;;;;;;4988522;28;20084;-63
2021/04/12 09:24:36;;;;;;;4.32;0.85;;;24.60;25.70;;;;;;4990952;28;20115;-63
2021/04/12 09:27:36;;;;;;;3.25;1.10;;;25.80;24.90;;;;;;4988252;28;20546;-63
2021/04/12 09:30:17;;;;;;;3.55;0.75;;;27.00;24.40;;;;;;4996693;28;20779;-63
2021/04/12 09:32:49;;;;;;;4.43;1.27;;;27.70;23.00;;;;;;4993249;28;20069;-63
2021/04/12 09:35:48;;;;;;;4.47;1.10;;;28.30;22.90;;;;;;4988549;28;20034;-63
2021/04/12 09:38:32;;;;;;;4.47;1.00;;;29.10;22.10;;;;;;4993719;28;20598;-64
2021/04/12 09:41:10;;;;;;;4.10;0.70;;;30.20;21.80;;;;;;4990246;28;20135;-64
2021/04/12 09:44:21;;;;;;;2.38;0.75;;;30.60;20.40;;;;;;4994148;28;20380;-64
2021/04/12 09:47:06;;;;;;;3.55;0.75;;;30.10;19.40;;;;;;4994184;28;20042;-63
2021/04/12 09:50:10;;;;;;;4.30;0.70;;;28.30;19.60;;;;;;4995495;28;20040;-63
2021/04/12 09:53:26;;;;;;;4.90;0.77;;;26.80;20.90;;;;;;4998129;28;20030;-64
2021/04/12 09:56:12;;;;;;;3.72;1.00;;;26.90;21.10;;;;;;4956625;28;20560;-64
2021/04/12 09:58:58;;;;;;;3.65;0.80;;;27.80;20.50;;;;;;4959432;28;20038;-63
2021/04/12 10:02:15;;;;;;;4.05;0.90;;;27.80;20.50;;;;;;4990745;28;20033;-63
2021/04/12 10:04:49;;;;;;;2.85;0.88;;;28.30;20.10;;;;;;4991150;28;20636;-64
2021/04/12 10:07:55;;;;;;;6.03;0.80;;;29.10;19.70;;;;;;4984258;28;20048;-64
2021/04/12 10:10:27;;;;;;;3.17;0.80;;;29.40;19.10;;;;;;5000188;28;20614;-64
2021/04/12 10:13:21;;;;;;;3.80;0.90;;;28.70;20.30;;;;;;4997381;28;20068;-64
2021/04/12 10:16:13;;;;;;;4.63;1.00;;;28.70;20.30;;;;;;4997917;28;20041;-64
2021/04/12 10:19:00;;;;;;;3.92;0.73;;;28.80;20.20;;;;;;4998145;28;20044;-64
2021/04/12 10:21:41;;;;;;;0.93;0.70;;;29.00;19.30;;;;;;4999664;28;20499;-64
2021/04/12 10:24:19;;;;;;;4.32;1.00;;;28.60;19.70;;;;;;4994680;28;20034;-64
2021/04/12 10:26:58;;;;;;;2.40;0.68;;;28.60;20.20;;;;;;4999479;28;20034;-64
2021/04/12 10:29:41;;;;;;;3.70;1.00;;;29.30;19.60;;;;;;5002403;28;20029;-63
2021/04/12 10:32:15;;;;;;;2.70;0.90;;;30.10;18.90;;;;;;5010548;28;20041;-64
2021/04/12 10:34:48;;;;;;;3.65;0.70;;;30.60;18.60;;;;;;5003989;28;20042;-64
2021/04/12 10:37:28;;;;;;;2.80;1.13;;;30.40;18.10;;;;;;4991930;28;20029;-63
2021/04/12 10:40:09;;;;;;;3.90;0.77;;;29.60;18.20;;;;;;5007458;28;20144;-64
2021/04/12 10:42:58;;;;;;;4.10;0.90;;;29.50;18.60;;;;;;5006783;28;20124;-65
2021/04/12 10:45:44;;;;;;;4.72;0.73;;;30.00;18.10;;;;;;4990854;28;20033;-64
2021/04/12 10:48:20;;;;;;;2.85;1.08;;;29.70;17.30;;;;;;5023312;28;20810;-64
2021/04/12 10:51:01;;;;;;;4.95;0.77;;;28.30;17.90;;;;;;5002158;28;20037;-64
2021/04/12 10:53:35;;;;;;;1.30;0.60;;;26.70;19.00;;;;;;5002893;28;20352;-63
2021/04/12 10:56:06;;;;;;;2.50;0.82;;;25.10;19.80;;;;;;4993463;28;20037;-63
2021/04/12 10:58:45;;;;;;;4.90;1.00;;;;;;;;;;4994871;28;20092;-64
2021/04/12 11:01:28;;;;;;;7.22;1.85;;;;;;;;;;4990143;28;20120;-64
2021/04/12 11:04:00;;;;;;;4.32;0.47;;;23.90;21.90;;;;;;4998949;28;20030;-63
2021/04/12 11:06:45;;;;;;;4.25;0.73;;;25.40;21.10;;;;;;4993624;28;20120;-64
2021/04/12 11:09:14;;;;;;;6.80;0.90;;;26.00;20.90;;;;;;4994206;28;20746;-64
2021/04/12 11:12:06;;;;;;;3.97;0.70;;;26.60;20.30;;;;;;4999036;28;20526;-64
2021/04/12 11:14:43;;;;;;;4.03;0.82;;;27.20;19.80;;;;;;4989419;28;20044;-64
2021/04/12 11:17:27;;;;;;;3.80;0.88;;;26.90;19.50;;;;;;5016514;28;20042;-64
2021/04/12 11:20:18;;;;;;;6.20;1.25;;;25.80;20.80;;;;;;5003042;28;20045;-64
2021/04/12 11:23:01;;;;;;;3.67;0.85;;;24.60;21.70;;;;;;5004549;28;20037;-63
2021/04/12 11:25:53;;;;;;;4.28;1.08;;;23.60;23.60;;;;;;4992419;28;20044;-63
2021/04/12 11:28:39;;;;;;;7.10;1.48;;;22.60;24.10;;;;;;4989462;28;20091;-63
2021/04/12 11:31:25;;;;;;;4.25;0.80;;;21.60;25.10;;;;;;5005509;28;20045;-64
2021/04/12 11:34:19;;;;;;;1.67;0.80;;;21.40;26.20;;;;;;4995450;28;20037;-63
2021/04/12 11:37:16;;;;;;;3.15;0.80;;;22.00;25.60;;;;;;4986567;28;20033;-64
2021/04/12 11:40:08;;;;;;;1.25;0.60;;;22.70;25.00;;;;;;5000614;28;20059;-66
2021/04/12 11:42:39;;;;;;;2.58;0.70;;;23.10;23.60;;;;;;4999302;28;20041;-64
2021/04/12 11:45:08;;;;;;;1.80;0.70;;;23.00;23.40;;;;;;4997242;28;20038;-64
2021/04/12 11:47:55;;;;;;;5.75;0.88;;;22.70;24.40;;;;;;5000076;28;20492;-65
2021/04/12 11:50:28;;;;;;;3.13;0.52;;;22.30;24.20;;;;;;4992886;28;20033;-63
2021/04/12 11:53:02;;;;;;;5.20;0.88;;;21.60;24.70;;;;;;5000037;28;20037;-63
2021/04/12 11:55:52;;;;;;;5.38;1.00;;;20.90;25.00;;;;;;5005295;28;20041;-63
2021/04/12 11:58:45;;;;;;;5.03;1.00;;;20.10;25.90;;;;;;4996429;28;20557;-63
2021/04/12 12:01:27;;;;;;;4.40;1.05;;;19.30;26.80;;;;;;5002188;28;20049;-63
2021/04/12 12:04:13;;;;;;;2.55;0.82;;;18.60;27.80;;;;;;5003249;28;20315;-63
2021/04/12 12:07:08;;;;;;;5.30;1.40;;;17.80;28.50;;;;;;4993642;28;20097;-63
2021/04/12 12:09:54;;;;;;;4.45;1.15;;;17.10;30.10;;;;;;4967929;28;20494;-64
2021/04/12 12:12:45;;;;;;;7.95;1.73;;;16.70;31.80;;;;;;4998094;28;20038;-63
2021/04/12 12:15:28;;;;;;;3.92;0.90;;;16.70;33.50;;;;;;5002785;28;20041;-63
2021/04/12 12:18:16;;;;;;;6.55;1.23;;;17.10;33.30;;;;;;5002358;28;20049;-63
2021/04/12 12:20:52;;;;;;;7.68;1.25;;;17.30;32.20;;;;;;5001313;28;20168;-63
2021/04/12 12:23:40;;;;;;;5.18;1.10;;;17.10;31.90;;;;;;4997833;28;20091;-63
2021/04/12 12:26:34;;;;;;;3.70;1.00;;;16.80;32.20;;;;;;4981549;28;20042;-63
2021/04/12 12:29:12;;;;;;;6.35;2.05;;;16.50;32.90;;;;;;4999302;28;20037;-63
2021/04/12 12:31:59;;;;;;;6.43;1.38;;;16.10;33.20;;;;;;5001108;28;20034;-63
2021/04/12 12:34:53;;;;;;;4.35;1.20;;;15.80;33.80;;;;;;5000710;28;20147;-63
2021/04/12 12:37:39;;;;;;;7.05;1.00;;;15.80;34.40;;;;;;5002577;28;20183;-64
2021/04/12 12:40:23;;;;;;;2.08;1.05;;;16.10;34.80;;;;;;5004253;28;20037;-62
2021/04/12 12:43:01;;;;;;;2.78;1.15;;;16.50;33.90;;;;;;5009039;28;20056;-62
2021/04/12 12:45:29;;;;;;;4.00;1.08;;;16.70;33.40;;;;;;5002753;28;20588;-63
2021/04/12 12:47:59;;;;;;;5.07;1.30;;;16.80;33.70;;;;;;4998509;28;20038;-64
2021/04/12 12:50:30;;;;;;;4.90;1.35;;;16.90;34.20;;;;;;4996323;28;20487;-64
2021/04/12 12:53:03;;;;;;;6.78;0.95;;;17.00;34.40;;;;;;4997348;28;20042;-64
2021/04/12 12:55:37;;;;;;;2.28;0.80;;;17.10;33.10;;;;;;4993892;28;20112;-65
2021/04/12 12:58:16;;;;;;;0.98;0.80;;;17.10;32.00;;;;;;4944719;28;20080;-63
2021/04/12 13:00:44;;;;;;;3.70;0.70;;;17.00;31.30;;;;;;4993217;28;21383;-63
2021/04/12 13:03:38;;;;;;;1.02;0.88;;;16.80;30.70;;;;;;5000286;28;20042;-62
2021/04/12 13:06:24;;;;;;;2.40;0.80;;;16.50;30.40;;;;;;4998004;28;20074;-63
2021/04/12 13:08:53;;;;;;;5.30;0.70;;;16.40;31.90;;;;;;4996627;28;20550;-63
2021/04/12 13:11:35;;;;;;;5.95;1.10;;;16.40;31.50;;;;;;5003677;28;20064;-63
2021/04/12 13:14:08;;;;;;;1.55;1.02;;;16.30;32.20;;;;;;4999290;28;20120;-63
2021/04/12 13:16:34;;;;;;;3.95;0.98;;;16.30;33.50;;;;;;4991325;28;20471;-63
2021/04/12 13:19:05;;;;;;;1.98;0.85;;;16.40;34.30;;;;;;5005139;28;20587;-63
2021/04/12 13:21:37;;;;;;;2.08;0.90;;;16.60;34.60;;;;;;5010076;28;20036;-63
2021/04/12 13:24:33;;;;;;;3.95;1.00;;;16.70;34.40;;;;;;4996750;28;20176;-63
2021/04/12 13:27:21;;;;;;;1.00;0.75;;;17.00;34.30;;;;;;4992673;28;20042;-64
2021/04/12 13:30:09;;;;;;;3.22;0.80;;;17.10;33.40;;;;;;4998571;28;20571;-63
2021/04/12 13:32:40;;;;;;;0.57;0.52;;;17.20;33.60;;;;;;5003054;28;20037;-63
2021/04/12 13:35:11;;;;;;;1.95;0.63;;;17.30;32.70;;;;;;5011024;28;20041;-63
2021/04/12 13:37:46;;;;;;;0.80;0.50;;;17.20;32.30;;;;;;5000095;28;20045;-63
2021/04/12 13:40:19;;;;;;;5.53;0.60;;;17.10;31.60;;;;;;5001965;28;20133;-64
2021/04/12 13:42:57;;;;;;;1.35;0.60;;;16.80;31.40;;;;;;5017084;28;20042;-63
2021/04/12 13:45:27;;;;;;;3.45;0.73;;;16.30;31.70;;;;;;5005877;28;20495;-63
2021/04/12 13:47:57;;;;;;;3.38;0.50;;;15.90;31.70;;;;;;5004392;28;20046;-63
2021/04/12 13:50:40;;;;;;;3.10;0.80;;;15.50;31.90;;;;;;5004906;28;20041;-64
2021/04/12 13:53:09;;;;;;;1.88;0.60;;;15.20;32.30;;;;;;5009944;28;20042;-63
2021/04/12 13:55:43;;;;;;;3.90;0.80;;;15.00;33.00;;;;;;5009947;28;20061;-64
2021/04/12 13:58:25;;;;;;;1.05;0.60;;;14.80;33.40;;;;;;5010301;28;20111;-63
2021/04/12 14:01:08;;;;;;;1.95;0.65;;;14.60;33.80;;;;;;5004329;28;20504;-64
2021/04/12 14:03:39;;;;;;;4.82;0.65;;;14.50;34.70;;;;;;5001140;28;20041;-64
2021/04/12 14:06:13;;;;;;;3.60;0.90;;;14.40;35.10;;;;;;5005028;28;20045;-63
2021/04/12 14:08:51;;;;;;;1.75;0.98;;;14.30;35.70;;;;;;5015510;28;20099;-64
2021/04/12 14:11:25;;;;;;;0.80;0.45;;;14.40;36.80;;;;;;5009795;28;20464;-64
2021/04/12 14:14:01;;;;;;;1.95;0.77;;;14.80;37.20;;;;;;5006632;28;20040;-64
2021/04/12 14:16:29;;;;;;;0.68;0.45;;;15.20;36.40;;;;;;4993651;28;20076;-64
2021/04/12 14:19:10;;;;;;;0.80;0.52;;;15.40;36.40;;;;;;4985656;28;20383;-64
2021/04/12 14:21:44;;;;;;;1.70;0.50;;;15.60;35.80;;;;;;4990059;28;23189;-64
2021/04/12 14:24:33;;;;;;;1.73;0.70;;;15.80;35.40;;;;;;4993527;28;20029;-64
2021/04/12 14:27:19;;;;;;;1.77;0.55;;;15.90;34.90;;;;;;4990301;28;20368;-65
2021/04/12 14:30:05;;;;;;;1.35;0.70;;;16.00;35.10;;;;;;4993683;28;21765;-65